Time;durP1;ratioP1;P1;durP2;ratioP2;P2;SDS_P1;SDS_P2;PMS_P1;PMS_P2;Temp;Humidity;BMP_temperature;BMP_pressure;BME280_temperature;BME280_humidity;BME280_pressure;Samples;Min_cycle;Max_cycle;Signal;HPM_P1;HPM_P2
2022/06/25 08:24:19;;;;;;;4.60;1.67;;;23.00;99.90;;;;;;5553272;22;15604386;-83
2022/06/25 08:27:21;;;;;;;4.78;1.35;;;23.20;99.90;;;;;;6207225;23;20706;-82
2022/06/25 08:30:29;;;;;;;5.40;1.20;;;23.30;99.30;;;;;;6206901;23;20028;-83
2022/06/25 08:33:42;;;;;;;3.60;1.50;;;23.20;99.40;;;;;;6202904;23;20044;-83
2022/06/25 08:37:10;;;;;;;4.60;1.52;;;23.40;99.50;;;;;;6201702;23;20032;-81
2022/06/25 08:40:36;;;;;;;5.53;1.55;;;23.30;99.90;;;;;;6179885;23;20032;-83
2022/06/25 08:44:12;;;;;;;3.20;1.42;;;23.60;99.90;;;;;;6147429;23;20020;-83
2022/06/25 08:47:54;;;;;;;3.78;1.48;;;23.90;99.10;;;;;;6092249;23;20009;-82
2022/06/25 08:55:19;;;;;;;4.00;1.40;;;23.70;99.40;;;;;;6036673;23;20018;-82
2022/06/25 08:58:54;;;;;;;7.47;1.85;;;23.90;99.30;;;;;;6041084;23;20067;-84
2022/06/25 09:02:34;;;;;;;3.75;1.20;;;24.20;98.20;;;;;;6005329;23;20016;-83
2022/06/25 09:09:27;;;;;;;3.28;1.45;;;24.30;97.20;;;;;;5771630;24;20027;-84
2022/06/25 09:18:28;;;;;;;4.53;1.52;;;;;;;;;;6248004;22;20020;-87
2022/06/25 09:21:09;;;;;;;4.88;1.52;;;25.00;96.20;;;;;;6249740;22;19985;-87
2022/06/25 09:28:47;;;;;;;5.13;1.75;;;;;;;;;;6233087;22;20027;-83
2022/06/25 09:31:35;;;;;;;3.08;1.45;;;24.50;97.40;;;;;;6252723;22;20024;-82
2022/06/25 10:07:59;;;;;;;2.25;1.38;;;;;;;;;;6229168;22;20035;-81
2022/06/25 10:10:10;;;;;;;5.55;1.63;;;26.00;93.80;;;;;;6258790;23;20020;-80
2022/06/25 10:12:37;;;;;;;2.95;1.45;;;26.00;93.10;;;;;;6232644;22;20011;-81
2022/06/25 10:15:05;;;;;;;2.97;1.27;;;25.90;93.10;;;;;;6232737;23;20443;-81
2022/06/25 10:17:32;;;;;;;4.45;1.20;;;26.00;92.70;;;;;;6257185;23;20046;-81
2022/06/25 10:20:02;;;;;;;5.45;2.25;;;;;;;;;;6231214;23;20347;-80
2022/06/25 10:22:29;;;;;;;;;;;25.70;92.70;;;;;;6257407;22;19996;-82
2022/06/25 10:24:57;;;;;;;4.28;1.15;;;;;;;;;;6256460;23;20388;-81
2022/06/25 10:27:23;;;;;;;3.83;1.40;;;;;;;;;;6257193;23;20027;-81
2022/06/25 10:29:53;;;;;;;4.03;1.60;;;;;;;;;;6253660;23;20011;-81
2022/06/25 10:32:24;;;;;;;2.42;1.27;;;;;;;;;;6252127;22;20465;-80
2022/06/25 10:34:57;;;;;;;3.20;1.20;;;;;;;;;;6253558;23;20054;-81
2022/06/25 10:38:11;;;;;;;3.28;1.33;;;;;;;;;;6255591;22;20007;-81
2022/06/25 10:40:28;;;;;;;4.40;1.65;;;;;;;;;;6244414;23;20008;-82
2022/06/25 10:43:00;;;;;;;4.68;1.30;;;;;;;;;;6228468;23;20000;-82
2022/06/25 10:45:38;;;;;;;3.53;1.48;;;;;;;;;;6253201;23;20054;-80
2022/06/25 10:48:05;;;;;;;3.33;1.25;;;;;;;;;;6253761;23;20434;-81
2022/06/25 10:50:32;;;;;;;4.10;1.40;;;;;;;;;;6252639;23;20507;-80
2022/06/25 10:53:07;;;;;;;2.08;1.17;;;;;;;;;;6254139;22;19996;-81
2022/06/25 10:55:55;;;;;;;3.20;1.20;;;25.80;90.80;;;;;;6252053;23;20000;-81
2022/06/25 10:58:47;;;;;;;4.13;1.35;;;25.90;90.70;;;;;;6252401;23;20390;-81
2022/06/25 11:01:39;;;;;;;4.28;1.23;;;26.10;90.50;;;;;;6253618;23;20004;-81
2022/06/25 11:04:06;;;;;;;2.15;1.20;;;;;;;;;;6259024;22;20059;-80
2022/06/25 11:06:47;;;;;;;7.15;3.22;;;26.20;90.20;;;;;;6258531;22;20330;-81
2022/06/25 11:09:20;;;;;;;2.05;1.20;;;;;;;;;;6283723;22;20007;-81
2022/06/25 11:12:12;;;;;;;6.65;1.67;;;25.90;90.40;;;;;;6249567;22;20153;-81
2022/06/25 11:14:41;;;;;;;2.50;1.38;;;26.20;89.50;;;;;;6283996;22;20074;-81
2022/06/25 11:17:12;;;;;;;2.13;1.20;;;26.10;88.80;;;;;;6210002;22;20438;-81
2022/06/25 11:19:42;;;;;;;3.75;2.08;;;;;;;;;;6258837;22;20000;-81
2022/06/25 11:22:08;;;;;;;2.78;1.10;;;;;;;;;;6234301;22;20050;-80
2022/06/25 11:28:47;;;;;;;4.50;1.60;;;27.00;87.80;;;;;;6286039;22;19999;-80
2022/06/25 11:30:13;;;;;;;4.07;1.33;;;26.70;86.80;;;;;;6293668;22;20022;-81
2022/06/25 11:35:17;;;;;;;2.65;1.30;;;;;;;;;;6197086;23;20027;-81
2022/06/25 11:37:54;;;;;;;4.10;1.30;;;;;;;;;;6142894;23;20135;-81
2022/06/25 11:40:21;;;;;;;3.25;1.42;;;;;;;;;;6167683;23;20008;-81
2022/06/25 11:42:48;;;;;;;3.88;1.30;;;;;;;;;;6157185;23;20002;-81
2022/06/25 11:45:14;;;;;;;7.35;1.40;;;;;;;;;;6135952;23;20437;-81
2022/06/25 11:47:41;;;;;;;3.67;1.30;;;;;;;;;;6136587;23;20005;-81
2022/06/25 11:50:14;;;;;;;3.67;1.27;;;;;;;;;;6112862;23;20081;-81
2022/06/25 11:52:45;;;;;;;2.42;1.23;;;;;;;;;;6164735;23;20001;-81
2022/06/25 11:55:14;;;;;;;3.47;1.30;;;;;;;;;;6136706;23;20001;-81
2022/06/25 11:57:48;;;;;;;4.75;2.17;;;;;;;;;;6163936;23;20428;-81
2022/06/25 12:00:18;;;;;;;3.45;1.80;;;;;;;;;;6163313;23;20052;-80
2022/06/25 12:02:45;;;;;;;10.98;5.85;;;;;;;;;;6138924;23;20081;-81
2022/06/25 12:05:12;;;;;;;2.88;1.40;;;;;;;;;;6162563;23;20073;-80
2022/06/25 12:07:45;;;;;;;4.28;1.27;;;27.30;83.90;;;;;;6113617;23;20014;-81
2022/06/25 12:10:13;;;;;;;2.83;1.40;;;;;;;;;;6162377;23;20084;-81
2022/06/25 12:12:41;;;;;;;4.40;1.30;;;27.70;82.60;;;;;;6136630;23;20440;-80
2022/06/25 12:15:08;;;;;;;3.90;1.45;;;27.90;82.40;;;;;;6134047;23;20006;-83
2022/06/25 12:17:37;;;;;;;3.38;1.45;;;27.80;81.40;;;;;;6129789;23;20044;-83
2022/06/25 12:20:14;;;;;;;3.05;1.60;;;27.70;81.40;;;;;;6129743;23;20013;-82
2022/06/25 12:22:49;;;;;;;2.03;1.13;;;27.60;80.70;;;;;;6154967;23;20010;-80
2022/06/25 12:25:27;;;;;;;2.05;1.27;;;27.60;81.00;;;;;;6130383;23;20014;-81
2022/06/25 12:27:54;;;;;;;2.35;1.40;;;27.60;81.20;;;;;;6129289;23;20036;-82
2022/06/25 12:30:26;;;;;;;2.60;1.50;;;27.80;80.20;;;;;;6132779;23;20057;-81
2022/06/25 12:32:55;;;;;;;2.60;1.20;;;27.90;80.20;;;;;;6158063;23;20006;-80
2022/06/25 12:35:26;;;;;;;2.97;1.40;;;27.90;80.10;;;;;;6131915;23;20021;-81
2022/06/25 12:38:10;;;;;;;1.45;1.00;;;28.00;79.80;;;;;;6132627;23;20005;-80
2022/06/25 12:40:42;;;;;;;1.60;1.10;;;27.90;78.90;;;;;;6132122;23;20445;-80
2022/06/25 12:43:09;;;;;;;3.38;1.10;;;28.00;78.70;;;;;;6159402;23;20479;-79
2022/06/25 12:45:40;;;;;;;3.10;1.30;;;28.00;79.00;;;;;;6158680;23;20007;-81
2022/06/25 12:48:09;;;;;;;1.95;1.10;;;28.20;77.80;;;;;;6156647;23;20006;-82
2022/06/25 12:50:46;;;;;;;2.92;1.08;;;28.20;77.60;;;;;;6129978;23;20080;-82
2022/06/25 12:53:14;;;;;;;3.10;1.60;;;;;;;;;;6131026;23;20005;-80
2022/06/25 12:55:45;;;;;;;1.52;1.00;;;28.40;76.50;;;;;;6132768;23;20010;-80
2022/06/25 12:58:15;;;;;;;2.85;1.20;;;28.60;75.60;;;;;;6132571;23;20014;-81
2022/06/25 13:00:43;;;;;;;2.60;1.10;;;28.60;75.50;;;;;;6158360;23;20009;-81
2022/06/25 13:03:11;;;;;;;1.33;0.87;;;28.80;74.10;;;;;;6131336;23;20033;-81
2022/06/25 13:05:37;;;;;;;1.83;0.95;;;;;;;;;;6131599;23;20347;-81
2022/06/25 13:08:04;;;;;;;4.15;1.27;;;28.60;74.60;;;;;;6158297;23;20002;-81
2022/06/25 13:10:31;;;;;;;1.90;1.20;;;28.60;74.80;;;;;;6132094;23;20021;-81
2022/06/25 13:12:58;;;;;;;1.58;0.90;;;28.50;74.30;;;;;;6157708;23;20005;-83
2022/06/25 13:15:25;;;;;;;1.95;1.30;;;28.50;74.60;;;;;;6132079;23;20006;-80
2022/06/25 13:17:52;;;;;;;1.75;1.00;;;28.30;73.50;;;;;;6132756;23;20012;-82
2022/06/25 13:23:13;;;;;;;3.97;1.40;;;28.10;74.60;;;;;;6143793;23;20064;-83
2022/06/25 13:25:39;;;;;;;3.33;1.33;;;28.40;75.40;;;;;;6131782;23;20460;-83
2022/06/25 13:28:04;;;;;;;4.28;1.52;;;28.80;75.40;;;;;;6133412;23;20405;-83
2022/06/25 13:30:30;;;;;;;3.78;1.58;;;28.70;75.60;;;;;;6133707;23;20005;-84
2022/06/25 13:32:56;;;;;;;2.30;1.40;;;;;;;;;;6131257;23;20352;-82
2022/06/25 13:35:45;;;;;;;3.55;1.40;;;28.40;74.90;;;;;;6130056;23;20017;-81
2022/06/25 13:38:11;;;;;;;4.18;1.67;;;28.00;76.10;;;;;;6128090;23;20045;-80
2022/06/25 13:40:38;;;;;;;3.42;1.40;;;;;;;;;;6105810;23;20013;-83
2022/06/25 13:43:05;;;;;;;2.45;1.48;;;27.80;76.70;;;;;;6137554;23;20010;-81
2022/06/25 13:45:31;;;;;;;2.65;1.10;;;;;;;;;;6151897;23;20038;-80
2022/06/25 13:48:09;;;;;;;2.92;1.38;;;27.90;76.20;;;;;;6133760;23;20018;-81
2022/06/25 13:50:36;;;;;;;4.85;1.20;;;28.10;74.40;;;;;;6159230;23;20084;-81
2022/06/25 13:53:01;;;;;;;1.88;1.10;;;28.10;74.70;;;;;;6132571;23;20005;-82
2022/06/25 13:55:27;;;;;;;2.60;1.40;;;28.30;75.60;;;;;;6128607;23;20036;-82
2022/06/25 13:57:53;;;;;;;1.80;1.20;;;;;;;;;;6131318;23;20017;-83
2022/06/25 14:00:19;;;;;;;1.98;1.25;;;28.40;73.80;;;;;;6131329;23;20338;-83
2022/06/25 14:02:45;;;;;;;2.40;1.27;;;28.30;73.80;;;;;;6153169;23;20088;-81
2022/06/25 14:05:11;;;;;;;3.05;1.20;;;28.30;73.80;;;;;;6127066;23;20697;-81
2022/06/25 14:07:37;;;;;;;2.10;1.30;;;28.40;74.60;;;;;;6129953;23;20009;-82
2022/06/25 14:10:03;;;;;;;3.33;1.10;;;28.40;74.00;;;;;;6128997;23;20023;-82
2022/06/25 14:12:30;;;;;;;2.97;1.30;;;28.30;74.40;;;;;;6132427;23;20052;-80
2022/06/25 14:14:56;;;;;;;4.30;1.40;;;28.30;74.60;;;;;;6132587;23;20012;-80
2022/06/25 14:17:23;;;;;;;3.03;1.30;;;28.20;74.60;;;;;;6131008;23;20010;-81
2022/06/25 14:19:49;;;;;;;1.60;1.20;;;28.00;74.20;;;;;;6128268;23;20060;-80
2022/06/25 14:22:15;;;;;;;2.60;1.25;;;;;;;;;;6130559;23;20005;-82
2022/06/25 14:27:25;;;;;;;3.15;1.25;;;27.70;75.60;;;;;;6156685;23;20016;-82
2022/06/25 14:29:52;;;;;;;2.03;1.10;;;27.80;75.90;;;;;;6130008;23;20005;-82
2022/06/25 14:32:18;;;;;;;3.15;1.40;;;27.70;75.50;;;;;;6129031;23;20021;-80
2022/06/25 14:34:44;;;;;;;2.53;1.40;;;27.70;76.30;;;;;;6152319;23;20009;-82
2022/06/25 14:42:38;;;;;;;2.80;1.30;;;28.00;76.10;;;;;;6155735;23;20318;-80
2022/06/25 14:45:05;;;;;;;1.98;1.17;;;27.90;76.60;;;;;;6129778;23;20300;-82
2022/06/25 14:47:31;;;;;;;2.17;1.00;;;27.90;77.00;;;;;;6129698;23;20017;-82
2022/06/25 14:49:56;;;;;;;1.70;1.20;;;27.90;76.00;;;;;;6128632;23;20437;-82
2022/06/25 14:52:22;;;;;;;1.92;1.10;;;27.90;75.50;;;;;;6131218;23;20002;-80
2022/06/25 14:54:48;;;;;;;3.10;1.30;;;;;;;;;;6131770;23;20233;-81
2022/06/25 14:57:15;;;;;;;2.55;1.10;;;;;;;;;;6130829;23;20005;-80
2022/06/25 14:59:40;;;;;;;3.35;1.27;;;28.10;75.90;;;;;;6140398;23;20014;-82
2022/06/25 15:02:07;;;;;;;5.13;1.30;;;28.00;76.20;;;;;;6149526;23;20021;-81
2022/06/25 15:04:32;;;;;;;2.75;1.27;;;28.00;76.30;;;;;;6127674;23;20010;-81
2022/06/25 15:06:58;;;;;;;3.15;1.20;;;;;;;;;;6155086;23;20061;-81
2022/06/25 15:09:24;;;;;;;1.67;1.05;;;;;;;;;;6128656;23;20010;-80
2022/06/25 15:11:50;;;;;;;0.82;0.80;;;;;;;;;;6131166;23;20013;-84
2022/06/25 15:14:17;;;;;;;2.10;1.02;;;;;;;;;;6131442;23;20061;-80
2022/06/25 15:16:43;;;;;;;1.45;1.17;;;;;;;;;;6132516;23;20009;-82
2022/06/25 15:19:09;;;;;;;3.33;1.17;;;;;;;;;;6127147;23;20084;-81
2022/06/25 15:21:35;;;;;;;2.30;1.40;;;28.70;75.90;;;;;;6129779;23;20204;-82
2022/06/25 15:24:01;;;;;;;2.92;1.20;;;28.80;74.90;;;;;;6128214;23;20069;-83
2022/06/25 15:26:28;;;;;;;4.28;1.73;;;28.80;74.90;;;;;;6129430;23;20109;-80
2022/06/25 15:28:54;;;;;;;2.97;1.17;;;28.70;75.40;;;;;;6132244;23;20005;-83
2022/06/25 15:31:20;;;;;;;1.67;1.00;;;28.60;75.80;;;;;;6131079;23;20060;-83
2022/06/25 15:33:45;;;;;;;2.28;1.15;;;28.00;75.90;;;;;;6130457;23;20029;-81
2022/06/25 15:36:12;;;;;;;2.90;1.77;;;28.00;76.30;;;;;;6156421;23;20465;-81
2022/06/25 15:38:39;;;;;;;1.95;1.25;;;27.90;76.90;;;;;;6129654;23;20088;-82
2022/06/25 15:41:06;;;;;;;1.90;1.00;;;27.60;76.80;;;;;;6130147;23;20010;-81
2022/06/25 15:43:31;;;;;;;2.42;1.52;;;27.50;77.40;;;;;;6130099;23;20009;-81
2022/06/25 15:45:57;;;;;;;1.92;1.27;;;27.40;77.40;;;;;;6131578;23;20137;-81
2022/06/25 15:48:23;;;;;;;1.77;1.00;;;27.50;77.50;;;;;;6131347;23;20001;-82
2022/06/25 15:50:49;;;;;;;1.73;1.05;;;27.60;77.40;;;;;;6155957;23;20394;-84
2022/06/25 15:53:14;;;;;;;1.42;0.98;;;27.70;77.10;;;;;;6156002;23;20001;-81
2022/06/25 15:55:40;;;;;;;3.70;1.30;;;27.80;77.40;;;;;;6130881;23;20005;-81
2022/06/25 15:58:06;;;;;;;1.83;1.23;;;27.70;77.50;;;;;;6132198;23;20013;-83
2022/06/25 16:00:33;;;;;;;2.75;1.00;;;27.70;77.60;;;;;;6131436;23;20009;-81
2022/06/25 16:03:04;;;;;;;3.33;1.38;;;27.90;77.70;;;;;;6129176;23;20017;-80
2022/06/25 16:05:30;;;;;;;2.45;1.30;;;28.00;77.10;;;;;;6160557;23;20076;-80
2022/06/25 16:07:56;;;;;;;2.35;1.38;;;27.80;77.40;;;;;;6158691;23;20340;-82
2022/06/25 16:10:23;;;;;;;3.35;1.40;;;27.70;78.00;;;;;;6127314;23;20348;-83
2022/06/25 16:12:49;;;;;;;3.35;1.42;;;27.70;77.70;;;;;;6128149;23;20167;-81
2022/06/25 16:15:15;;;;;;;2.15;1.10;;;;;;;;;;6150054;23;20226;-81
2022/06/25 16:17:41;;;;;;;2.53;1.25;;;27.60;77.00;;;;;;6161965;23;20088;-82
2022/06/25 16:20:11;;;;;;;2.35;1.38;;;27.60;77.20;;;;;;6163821;23;20092;-81
2022/06/25 16:22:37;;;;;;;;;;;27.70;77.00;;;;;;6163514;23;20439;-84
2022/06/25 16:25:03;;;;;;;2.65;1.15;;;27.70;76.90;;;;;;6160822;23;19915;-83
2022/06/25 16:27:29;;;;;;;2.35;1.20;;;27.80;77.40;;;;;;6161779;23;20047;-81
2022/06/25 16:29:55;;;;;;;1.40;0.95;;;27.80;76.90;;;;;;6162880;23;20005;-82
2022/06/25 16:32:21;;;;;;;1.73;1.17;;;;;;;;;;6162356;23;20027;-82
2022/06/25 16:34:46;;;;;;;1.70;1.15;;;27.80;75.20;;;;;;6169117;23;20016;-80
2022/06/25 16:37:16;;;;;;;2.30;1.27;;;;;;;;;;6199786;23;19997;-80
2022/06/25 16:39:42;;;;;;;1.88;1.00;;;;;;;;;;6172720;23;20017;-79
2022/06/25 16:42:08;;;;;;;1.77;1.30;;;;;;;;;;6172506;23;20149;-80
2022/06/25 16:44:34;;;;;;;2.42;1.17;;;;;;;;;;6169983;23;20005;-81
2022/06/25 16:47:00;;;;;;;2.38;1.08;;;;;;;;;;6198649;23;20462;-80
2022/06/25 16:49:27;;;;;;;3.30;1.50;;;;;;;;;;6170505;23;20040;-81
2022/06/25 16:51:55;;;;;;;2.30;1.17;;;;;;;;;;6167649;23;20012;-81
2022/06/25 16:54:22;;;;;;;2.40;1.40;;;28.00;75.30;;;;;;6166398;23;20435;-80
2022/06/25 16:56:49;;;;;;;2.83;1.30;;;;;;;;;;6167969;23;20005;-79
2022/06/25 16:59:19;;;;;;;2.92;1.20;;;;;;;;;;6194354;23;20479;-81
2022/06/25 17:01:46;;;;;;;2.65;1.35;;;27.80;76.10;;;;;;6163814;23;20001;-82
2022/06/25 17:04:12;;;;;;;2.30;1.20;;;27.60;76.70;;;;;;6165565;23;20005;-82
2022/06/25 17:06:39;;;;;;;3.30;1.10;;;;;;;;;;6168143;23;20020;-81
2022/06/25 17:09:06;;;;;;;2.70;1.48;;;27.40;77.60;;;;;;6166276;23;20490;-80
2022/06/25 17:11:32;;;;;;;1.73;1.15;;;27.40;78.00;;;;;;6165252;23;20005;-82
2022/06/25 17:13:58;;;;;;;3.45;2.25;;;27.30;76.30;;;;;;6162421;23;20100;-80
2022/06/25 17:16:24;;;;;;;1.60;1.27;;;;;;;;;;6193272;23;20013;-82
2022/06/25 17:18:51;;;;;;;2.42;1.20;;;26.90;75.90;;;;;;6172881;23;20005;-81
2022/06/25 17:21:18;;;;;;;1.88;1.20;;;;;;;;;;6172304;23;20088;-80
2022/06/25 17:23:45;;;;;;;4.13;1.35;;;26.70;76.10;;;;;;6172897;23;20002;-81
2022/06/25 17:26:12;;;;;;;1.95;1.20;;;26.70;76.60;;;;;;6172302;23;20065;-79
2022/06/25 17:28:46;;;;;;;3.10;1.10;;;26.70;76.90;;;;;;6194751;23;20001;-83
2022/06/25 17:31:12;;;;;;;2.42;1.45;;;;;;;;;;6191574;23;20055;-80
2022/06/25 17:33:38;;;;;;;3.15;1.60;;;26.70;77.00;;;;;;6170227;23;20005;-81
2022/06/25 17:36:05;;;;;;;2.40;1.30;;;;;;;;;;6172558;23;20069;-80
2022/06/25 17:38:31;;;;;;;2.03;1.48;;;26.70;77.70;;;;;;6169751;23;20041;-81
2022/06/25 17:40:57;;;;;;;4.78;1.55;;;26.60;78.00;;;;;;6169454;23;20005;-82
2022/06/25 17:43:23;;;;;;;3.15;1.30;;;26.50;77.30;;;;;;6168903;23;20329;-81
2022/06/25 17:45:54;;;;;;;2.70;1.58;;;26.50;77.80;;;;;;6162444;23;20088;-81
2022/06/25 17:48:20;;;;;;;4.85;3.15;;;;;;;;;;6163492;23;20028;-81
2022/06/25 17:50:46;;;;;;;2.35;1.33;;;;;;;;;;6189419;23;20001;-80
2022/06/25 17:53:12;;;;;;;3.33;1.90;;;;;;;;;;6196696;23;20012;-81
2022/06/25 17:55:38;;;;;;;3.03;1.75;;;26.60;78.00;;;;;;6205571;23;20033;-79
2022/06/25 17:58:04;;;;;;;4.70;1.75;;;26.60;78.40;;;;;;6205715;23;19997;-81
2022/06/25 18:00:30;;;;;;;1.60;1.15;;;26.50;78.00;;;;;;6166813;23;20005;-81
2022/06/25 18:02:56;;;;;;;1.90;1.15;;;;;;;;;;6191937;23;20074;-81
2022/06/25 18:05:26;;;;;;;1.95;1.15;;;24.90;77.40;;;;;;6167189;23;20005;-81
2022/06/25 18:07:52;;;;;;;1.88;1.30;;;26.20;79.10;;;;;;6165004;23;20024;-80
2022/06/25 18:10:18;;;;;;;2.33;1.42;;;26.20;79.30;;;;;;6190118;23;20001;-80
2022/06/25 18:12:45;;;;;;;2.47;1.65;;;;;;;;;;6165191;23;20008;-81
2022/06/25 18:15:11;;;;;;;1.90;1.30;;;26.10;79.30;;;;;;6190896;23;20006;-80
2022/06/25 18:17:38;;;;;;;1.98;1.20;;;26.20;79.60;;;;;;6170212;23;20072;-80
2022/06/25 18:20:05;;;;;;;2.30;1.10;;;26.00;79.70;;;;;;6173865;23;20075;-80
2022/06/25 18:22:31;;;;;;;2.53;1.63;;;;;;;;;;6173063;23;20005;-80
2022/06/25 18:24:57;;;;;;;2.63;1.35;;;25.90;80.00;;;;;;6198500;23;19996;-80
2022/06/25 18:27:26;;;;;;;2.63;1.30;;;25.90;80.50;;;;;;6204360;23;20005;-82
2022/06/25 18:29:59;;;;;;;1.92;1.27;;;25.90;80.90;;;;;;6178931;23;19989;-82
2022/06/25 18:32:25;;;;;;;4.85;1.80;;;;;;;;;;6172428;23;20063;-80
2022/06/25 18:34:52;;;;;;;2.35;1.42;;;25.80;80.50;;;;;;6173232;23;20011;-81
2022/06/25 18:37:18;;;;;;;5.57;1.63;;;25.70;83.30;;;;;;6199785;23;20189;-81
2022/06/25 18:39:45;;;;;;;3.92;1.25;;;25.80;82.70;;;;;;6174579;23;20040;-80
2022/06/25 18:42:11;;;;;;;3.10;1.33;;;;;;;;;;6202194;23;20016;-80
2022/06/25 18:44:38;;;;;;;2.05;1.27;;;25.60;81.80;;;;;;6200995;23;20073;-80
2022/06/25 18:47:04;;;;;;;1.70;1.15;;;;;;;;;;6172971;23;20005;-81
2022/06/25 18:49:30;;;;;;;5.20;1.90;;;25.60;82.30;;;;;;6175494;23;20017;-81
2022/06/25 18:51:55;;;;;;;3.67;1.60;;;25.60;83.10;;;;;;6177809;23;20016;-79
2022/06/25 18:54:21;;;;;;;2.42;1.40;;;25.60;83.20;;;;;;6201031;23;20016;-80
2022/06/25 18:56:47;;;;;;;2.22;1.65;;;25.60;83.30;;;;;;6198152;23;20000;-80
2022/06/25 18:59:12;;;;;;;3.33;1.83;;;25.50;83.40;;;;;;6171900;23;20016;-82
2022/06/25 19:01:38;;;;;;;3.53;1.77;;;25.50;83.40;;;;;;6169675;23;20116;-81
2022/06/25 19:04:04;;;;;;;2.60;1.52;;;25.50;84.00;;;;;;6170578;23;20009;-80
2022/06/25 19:06:30;;;;;;;3.35;1.80;;;25.50;84.80;;;;;;6170081;23;20009;-81
2022/06/25 19:08:56;;;;;;;3.50;1.63;;;;;;;;;;6169756;23;20100;-81
2022/06/25 19:11:22;;;;;;;5.50;1.80;;;25.50;84.40;;;;;;6199370;23;20001;-80
2022/06/25 19:13:47;;;;;;;2.28;1.40;;;25.40;84.80;;;;;;6196106;23;20001;-81
2022/06/25 19:16:13;;;;;;;3.08;1.60;;;25.30;85.40;;;;;;6145472;23;20023;-79
2022/06/25 19:18:39;;;;;;;3.30;1.67;;;;;;;;;;6196530;23;20001;-80
2022/06/25 19:21:05;;;;;;;5.22;2.20;;;25.30;85.70;;;;;;6172088;23;20005;-81
2022/06/25 19:23:31;;;;;;;5.22;1.80;;;25.20;86.80;;;;;;6173860;23;20005;-79
2022/06/25 19:25:57;;;;;;;4.05;2.05;;;25.20;88.00;;;;;;6198727;23;20036;-81
2022/06/25 19:28:24;;;;;;;3.22;1.98;;;25.10;88.30;;;;;;6174009;23;20001;-80
2022/06/25 19:30:50;;;;;;;5.35;3.42;;;25.10;88.70;;;;;;6172204;23;20001;-80
2022/06/25 19:33:16;;;;;;;3.78;1.88;;;25.00;88.90;;;;;;6173092;23;20012;-81
2022/06/25 19:35:42;;;;;;;2.80;1.88;;;;;;;;;;6171261;23;20012;-81
2022/06/25 19:38:08;;;;;;;3.35;1.95;;;;;;;;;;6170001;23;20033;-82
2022/06/25 19:44:34;;;;;;;3.80;2.00;;;24.70;90.50;;;;;;6199437;23;20061;-83
2022/06/25 19:47:47;;;;;;;4.38;1.98;;;25.20;90.90;;;;;;6201180;23;20012;-82
2022/06/25 19:51:23;;;;;;;4.90;2.47;;;24.50;90.90;;;;;;6100527;23;20017;-83
2022/06/25 19:54:24;;;;;;;4.28;2.38;;;24.40;91.20;;;;;;6148071;23;20001;-83
2022/06/25 19:57:34;;;;;;;2.80;1.70;;;24.30;91.40;;;;;;6128342;23;20012;-83
2022/06/25 20:00:56;;;;;;;8.90;4.22;;;24.30;91.80;;;;;;6122644;23;20088;-83
2022/06/25 20:04:28;;;;;;;3.72;2.30;;;24.20;91.90;;;;;;6108548;23;20118;-82
2022/06/25 20:07:24;;;;;;;3.75;2.05;;;24.10;92.40;;;;;;6062510;23;20042;-82
2022/06/25 20:13:26;;;;;;;4.28;2.53;;;;;;;;;;6109692;23;20467;-82
2022/06/25 20:15:56;;;;;;;5.15;2.20;;;;;;;;;;6207788;23;20037;-82
2022/06/25 20:18:25;;;;;;;5.82;2.63;;;23.80;92.70;;;;;;6207083;23;20012;-84
2022/06/25 20:21:32;;;;;;;4.57;2.00;;;23.80;92.80;;;;;;6208549;23;19989;-82
2022/06/25 20:24:10;;;;;;;6.35;3.00;;;;;;;;;;6208402;23;19985;-83
2022/06/25 20:27:19;;;;;;;3.47;1.98;;;23.80;92.80;;;;;;6183887;23;20012;-82
2022/06/25 20:29:46;;;;;;;3.33;2.23;;;;;;;;;;6159512;23;20012;-81
2022/06/25 20:32:14;;;;;;;4.45;2.90;;;;;;;;;;6207987;23;20015;-80
2022/06/25 20:34:42;;;;;;;4.90;2.90;;;;;;;;;;6203623;23;20002;-81
2022/06/25 20:37:08;;;;;;;4.50;2.05;;;;;;;;;;6149718;23;20013;-83
2022/06/25 20:39:34;;;;;;;3.55;1.95;;;;;;;;;;6174380;23;20012;-81
2022/06/25 20:42:03;;;;;;;7.63;4.40;;;;;;;;;;6174441;23;20070;-81
2022/06/25 20:44:29;;;;;;;2.85;1.50;;;;;;;;;;6148334;23;20033;-82
2022/06/25 20:46:58;;;;;;;4.78;1.70;;;;;;;;;;6174161;23;20016;-82
2022/06/25 20:49:27;;;;;;;7.05;1.60;;;;;;;;;;6183989;23;20017;-86
2022/06/25 20:51:54;;;;;;;5.90;2.20;;;;;;;;;;6186463;23;19985;-86
2022/06/25 20:54:24;;;;;;;5.10;1.70;;;;;;;;;;6187175;23;20008;-86
2022/06/25 20:57:09;;;;;;;4.93;1.75;;;;;;;;;;6181662;23;20017;-82
2022/06/25 22:53:56;;;;;;;4.93;2.38;;;;;;;;;;6214959;22;20031;-87
2022/06/25 22:56:22;;;;;;;8.63;3.60;;;;;;;;;;6242923;23;20007;-85
2022/06/25 22:59:00;;;;;;;11.80;4.50;;;19.40;99.90;;;;;;6243602;23;20027;-88
2022/06/25 23:01:29;;;;;;;8.55;3.38;;;19.40;99.90;;;;;;6240825;23;20020;-88
2022/06/25 23:03:57;;;;;;;28.30;11.27;;;;;;;;;;6269308;22;20004;-88
2022/06/25 23:06:27;;;;;;;5.40;2.20;;;;;;;;;;6269639;23;20249;-87
2022/06/25 23:09:20;;;;;;;6.10;2.88;;;;;;;;;;6267225;23;20353;-88
2022/06/25 23:11:46;;;;;;;5.22;2.55;;;;;;;;;;6244432;23;20067;-89
2022/06/25 23:14:12;;;;;;;5.10;2.50;;;;;;;;;;6268396;22;20008;-87
2022/06/25 23:16:39;;;;;;;4.72;2.40;;;19.40;99.90;;;;;;6240815;23;20054;-88
2022/06/25 23:19:05;;;;;;;4.65;1.70;;;;;;;;;;6210289;23;20128;-86
2022/06/25 23:21:31;;;;;;;5.90;1.98;;;;;;;;;;6211528;23;20051;-87
2022/06/25 23:23:58;;;;;;;11.27;4.22;;;;;;;;;;6237569;23;20000;-87
2022/06/25 23:26:24;;;;;;;6.32;3.03;;;;;;;;;;6236946;23;20012;-86
2022/06/25 23:28:50;;;;;;;6.20;2.40;;;;;;;;;;6216032;22;19999;-86
2022/06/25 23:31:21;;;;;;;4.72;2.28;;;19.30;99.90;;;;;;6217573;23;19997;-88
2022/06/25 23:33:49;;;;;;;5.70;3.22;;;19.30;99.90;;;;;;6217225;22;19993;-87
2022/06/25 23:36:18;;;;;;;4.13;2.70;;;19.30;99.90;;;;;;6242805;22;20068;-89
2022/06/25 23:38:44;;;;;;;5.07;2.20;;;19.00;99.90;;;;;;6189833;23;19989;-86
2022/06/25 23:41:10;;;;;;;4.47;2.50;;;;;;;;;;6216515;22;20039;-86
2022/06/25 23:43:36;;;;;;;4.78;2.40;;;19.20;99.90;;;;;;6242811;22;20056;-87
2022/06/25 23:46:02;;;;;;;4.82;2.38;;;;;;;;;;6217148;22;20009;-86
2022/06/25 23:48:30;;;;;;;4.50;2.40;;;19.10;99.90;;;;;;6242771;22;20015;-87
2022/06/25 23:50:58;;;;;;;6.70;2.63;;;;;;;;;;6242809;22;20000;-83
2022/06/25 23:53:28;;;;;;;4.97;2.05;;;19.00;99.90;;;;;;6217660;22;20212;-87
